createdAt,value
2022-12-22T00:02:09.996Z,10.45
2022-12-22T00:04:36.593Z,9.32
2022-12-22T00:07:03.334Z,9.38
2022-12-22T00:09:30.322Z,11.38
2022-12-22T00:11:57.213Z,8.57
2022-12-22T00:14:23.593Z,9.50
2022-12-22T00:16:50.162Z,10.43
2022-12-22T00:19:16.642Z,9.57
2022-12-22T00:21:42.972Z,9.68
2022-12-22T00:24:09.364Z,9.73
2022-12-22T00:26:36.068Z,10.63
2022-12-22T00:29:02.684Z,9.18
2022-12-22T00:31:29.407Z,8.73
2022-12-22T00:33:55.826Z,8.70
2022-12-22T00:36:22.459Z,9.75
2022-12-22T00:38:49.055Z,8.35
2022-12-22T00:41:15.581Z,9.40
2022-12-22T00:43:42.587Z,9.85
2022-12-22T00:46:09.012Z,11.18
2022-12-22T00:48:35.798Z,8.82
2022-12-22T00:51:02.502Z,9.73
2022-12-22T00:53:29.466Z,9.30
2022-12-22T00:55:55.859Z,9.50
2022-12-22T00:58:23.024Z,9.82
2022-12-22T01:00:49.765Z,9.98
2022-12-22T01:03:16.254Z,8.65
2022-12-22T01:05:42.761Z,9.77
2022-12-22T01:08:09.384Z,9.57
2022-12-22T01:10:35.814Z,10.20
2022-12-22T01:13:02.864Z,9.68
2022-12-22T01:15:29.808Z,10.48
2022-12-22T01:17:56.279Z,9.65
2022-12-22T01:20:22.990Z,10.70
2022-12-22T01:22:49.348Z,10.07
2022-12-22T01:25:15.869Z,8.88
2022-12-22T01:27:42.789Z,9.55
2022-12-22T01:30:09.216Z,9.77
2022-12-22T01:32:35.544Z,8.93
2022-12-22T01:35:02.081Z,9.52
2022-12-22T01:37:28.416Z,9.40
2022-12-22T01:39:54.814Z,9.20
2022-12-22T01:42:21.356Z,9.85
2022-12-22T01:44:47.806Z,10.98
2022-12-22T01:47:14.231Z,12.60
2022-12-22T01:49:40.598Z,10.75
2022-12-22T01:52:07.057Z,10.25
2022-12-22T01:54:33.440Z,10.82
2022-12-22T01:56:59.822Z,10.32
2022-12-22T01:59:26.441Z,9.77
2022-12-22T02:01:52.925Z,9.18
2022-12-22T02:04:19.724Z,9.30
2022-12-22T02:06:46.244Z,12.20
2022-12-22T02:09:12.939Z,10.00
2022-12-22T02:11:39.691Z,10.30
2022-12-22T02:14:07.423Z,9.73
2022-12-22T02:16:33.948Z,9.80
2022-12-22T02:19:00.587Z,9.88
2022-12-22T02:21:27.036Z,9.57
2022-12-22T02:23:53.455Z,8.88
2022-12-22T02:26:19.986Z,10.20
2022-12-22T02:28:46.309Z,10.02
2022-12-22T02:31:13.819Z,9.60
2022-12-22T02:33:40.465Z,10.88
2022-12-22T02:36:07.279Z,8.57
2022-12-22T02:38:33.932Z,9.98
2022-12-22T02:41:00.243Z,11.50
2022-12-22T02:43:26.785Z,11.32
2022-12-22T02:45:53.145Z,10.13
2022-12-22T02:48:19.626Z,9.85
2022-12-22T02:50:46.296Z,12.00
2022-12-22T02:53:12.688Z,10.13
2022-12-22T02:55:39.117Z,9.68
2022-12-22T02:58:06.022Z,9.07
2022-12-22T03:00:32.708Z,9.93
2022-12-22T03:02:59.535Z,10.23
2022-12-22T03:05:26.411Z,11.43
2022-12-22T03:07:52.801Z,9.75
2022-12-22T03:10:19.223Z,9.70
2022-12-22T03:12:46.032Z,9.68
2022-12-22T03:15:12.983Z,10.18
2022-12-22T03:17:39.752Z,9.05
2022-12-22T03:20:06.395Z,11.15
2022-12-22T03:22:33.469Z,10.38
2022-12-22T03:25:00.347Z,10.77
2022-12-22T03:27:27.346Z,9.10
2022-12-22T03:29:53.634Z,10.40
2022-12-22T03:32:20.191Z,11.02
2022-12-22T03:34:47.101Z,10.90
2022-12-22T03:37:13.592Z,10.55
2022-12-22T03:39:40.250Z,11.13
2022-12-22T03:42:06.650Z,9.68
2022-12-22T03:44:33.295Z,9.88
2022-12-22T03:46:59.795Z,11.40
2022-12-22T03:49:26.230Z,10.63
2022-12-22T03:51:53.282Z,10.73
2022-12-22T03:54:19.569Z,10.48
2022-12-22T03:56:46.273Z,9.63
2022-12-22T03:59:12.876Z,10.63
2022-12-22T04:01:39.444Z,9.38
2022-12-22T04:04:05.938Z,10.32
2022-12-22T04:06:32.782Z,10.60
2022-12-22T04:08:59.432Z,9.68
2022-12-22T04:11:26.182Z,10.20
2022-12-22T04:13:52.499Z,11.15
2022-12-22T04:16:19.624Z,11.02
2022-12-22T04:18:46.177Z,9.85
2022-12-22T04:21:12.829Z,9.80
2022-12-22T04:23:39.394Z,9.80
2022-12-22T04:26:05.818Z,9.80
2022-12-22T04:28:32.377Z,10.30
2022-12-22T04:30:59.225Z,10.00
2022-12-22T04:33:25.656Z,9.80
2022-12-22T04:35:52.058Z,10.70
2022-12-22T04:38:18.724Z,11.15
2022-12-22T04:40:45.109Z,9.30
2022-12-22T04:43:11.789Z,9.85
2022-12-22T04:45:38.316Z,9.30
2022-12-22T04:48:04.867Z,12.05
2022-12-22T04:50:31.537Z,11.63
2022-12-22T04:52:58.161Z,11.23
2022-12-22T04:55:24.810Z,10.57
2022-12-22T04:57:51.210Z,10.15
2022-12-22T05:00:17.972Z,10.82
2022-12-22T05:02:44.831Z,10.25
2022-12-22T05:05:11.318Z,11.18
2022-12-22T05:07:37.857Z,9.50
2022-12-22T05:10:04.184Z,10.52
2022-12-22T05:12:30.853Z,10.85
2022-12-22T05:14:57.537Z,9.45
2022-12-22T05:17:23.916Z,9.80
2022-12-22T05:19:50.249Z,10.40
2022-12-22T05:22:16.777Z,10.10
2022-12-22T05:24:43.118Z,10.77
2022-12-22T05:27:09.660Z,10.50
2022-12-22T05:29:36.255Z,8.98
2022-12-22T05:32:03.280Z,9.88
2022-12-22T05:34:29.634Z,10.63
2022-12-22T05:36:56.055Z,11.20
2022-12-22T05:39:22.750Z,10.23
2022-12-22T05:41:49.133Z,11.20
2022-12-22T05:44:15.503Z,9.88
2022-12-22T05:46:42.025Z,10.35
2022-12-22T05:49:08.482Z,9.07
2022-12-22T05:51:34.894Z,10.70
2022-12-22T05:54:01.710Z,9.70
2022-12-22T05:56:28.108Z,9.50
2022-12-22T05:58:54.783Z,10.10
2022-12-22T06:01:21.762Z,11.20
2022-12-22T06:03:48.431Z,10.30
2022-12-22T06:06:15.269Z,10.82
2022-12-22T06:08:41.701Z,10.50
2022-12-22T06:11:08.173Z,10.93
2022-12-22T06:13:34.492Z,11.57
2022-12-22T06:16:00.901Z,11.45
2022-12-22T06:18:27.701Z,11.00
2022-12-22T06:20:54.410Z,10.02
2022-12-22T06:23:20.881Z,10.50
2022-12-22T06:25:47.270Z,8.93
2022-12-22T06:28:13.859Z,9.75
2022-12-22T06:30:40.276Z,9.82
2022-12-22T06:33:07.285Z,10.57
2022-12-22T06:35:33.635Z,11.35
2022-12-22T06:38:00.487Z,11.07
2022-12-22T06:40:27.425Z,9.75
2022-12-22T06:42:54.614Z,10.10
2022-12-22T06:45:21.417Z,11.20
2022-12-22T06:47:47.813Z,10.38
2022-12-22T06:50:14.406Z,10.60
2022-12-22T06:52:41.206Z,9.75
2022-12-22T06:55:07.517Z,10.77
2022-12-22T06:57:34.261Z,8.85
2022-12-22T07:00:01.063Z,10.07
2022-12-22T07:02:27.662Z,11.25
2022-12-22T07:04:54.650Z,10.02
2022-12-22T07:07:21.453Z,10.10
2022-12-22T07:09:48.069Z,10.20
2022-12-22T07:12:14.697Z,9.00
2022-12-22T07:14:41.121Z,10.18
2022-12-22T07:17:07.504Z,10.20
2022-12-22T07:19:33.875Z,9.88
2022-12-22T07:22:00.793Z,10.75
2022-12-22T07:24:27.142Z,11.15
2022-12-22T07:26:53.532Z,11.82
2022-12-22T07:29:20.774Z,13.57
2022-12-22T07:31:47.531Z,12.02
2022-12-22T07:34:14.023Z,15.40
2022-12-22T07:36:40.483Z,13.15
2022-12-22T07:39:07.223Z,11.68
2022-12-22T07:41:33.899Z,11.85
2022-12-22T07:44:00.221Z,14.15
2022-12-22T07:46:26.610Z,12.45
2022-12-22T07:48:53.519Z,15.75
2022-12-22T07:51:20.061Z,15.15
2022-12-22T07:53:46.495Z,15.75
2022-12-22T07:56:12.940Z,15.38
2022-12-22T07:58:39.489Z,15.80
2022-12-22T08:01:05.850Z,14.55
2022-12-22T08:03:32.663Z,14.30
2022-12-22T08:05:58.997Z,15.15
2022-12-22T08:08:25.436Z,13.32
2022-12-22T08:10:52.195Z,14.68
2022-12-22T08:13:18.630Z,15.00
2022-12-22T08:15:45.396Z,13.80
2022-12-22T08:18:12.145Z,14.18
2022-12-22T08:20:38.695Z,14.07
2022-12-22T08:23:06.404Z,14.18
2022-12-22T08:25:33.444Z,12.93
2022-12-22T08:27:59.828Z,15.10
2022-12-22T08:30:26.925Z,14.93
2022-12-22T08:32:53.364Z,15.52
2022-12-22T08:35:19.828Z,16.63
2022-12-22T08:37:46.574Z,15.00
2022-12-22T08:40:13.039Z,15.15
2022-12-22T08:42:39.700Z,16.02
2022-12-22T08:45:06.419Z,15.68
2022-12-22T08:47:33.011Z,17.85
2022-12-22T08:49:59.370Z,17.40
2022-12-22T08:52:25.945Z,16.25
2022-12-22T08:54:52.716Z,14.88
2022-12-22T08:57:19.106Z,16.60
2022-12-22T08:59:45.869Z,15.52
2022-12-22T09:02:12.568Z,14.13
2022-12-22T09:04:39.027Z,16.27
2022-12-22T09:07:05.406Z,17.05
2022-12-22T09:09:31.977Z,18.08
2022-12-22T09:11:58.854Z,14.73
2022-12-22T09:14:25.809Z,14.75
2022-12-22T09:16:52.953Z,14.70
2022-12-22T09:19:19.490Z,14.40
2022-12-22T09:21:46.478Z,13.82
2022-12-22T09:24:13.096Z,13.50
2022-12-22T09:26:39.992Z,38.65
2022-12-22T09:29:06.354Z,29.33
2022-12-22T09:31:32.861Z,20.45
2022-12-22T09:33:59.824Z,20.80
2022-12-22T09:36:26.227Z,25.58
2022-12-22T09:38:53.235Z,19.92
2022-12-22T09:41:19.593Z,18.80
2022-12-22T09:43:46.339Z,20.80
2022-12-22T09:46:12.683Z,22.73
2022-12-22T09:48:39.080Z,18.60
2022-12-22T09:51:05.409Z,26.75
2022-12-22T09:53:31.782Z,20.15
2022-12-22T09:55:58.411Z,22.50
2022-12-22T09:58:26.723Z,24.63
2022-12-22T10:00:53.421Z,21.08
2022-12-22T10:03:20.190Z,21.17
2022-12-22T10:05:46.623Z,20.35
2022-12-22T10:08:13.398Z,21.63
2022-12-22T10:10:40.196Z,24.67
2022-12-22T10:13:06.642Z,19.48
2022-12-22T10:15:32.988Z,19.70
2022-12-22T10:17:59.493Z,23.05
2022-12-22T10:20:25.786Z,19.60
2022-12-22T10:22:52.176Z,23.30
2022-12-22T10:25:18.883Z,17.00
2022-12-22T10:27:49.890Z,21.10
2022-12-22T10:30:17.988Z,18.60
2022-12-22T10:32:44.498Z,20.55
2022-12-22T10:35:11.028Z,21.90
2022-12-22T10:37:37.562Z,22.08
2022-12-22T10:40:04.823Z,19.67
2022-12-22T10:42:31.293Z,21.02
2022-12-22T10:44:58.076Z,19.35
2022-12-22T10:47:24.784Z,18.88
2022-12-22T10:52:18.394Z,23.35
2022-12-22T10:54:47.081Z,19.50
2022-12-22T10:57:13.617Z,21.45
2022-12-22T10:59:40.058Z,20.33
2022-12-22T11:02:06.911Z,19.95
2022-12-22T11:04:33.709Z,19.58
2022-12-22T11:07:00.120Z,19.85
2022-12-22T11:09:35.266Z,17.92
2022-12-22T11:12:02.501Z,20.75
2022-12-22T11:14:29.100Z,19.05
2022-12-22T11:16:55.572Z,19.38
2022-12-22T11:19:22.083Z,22.52
2022-12-22T11:21:48.422Z,18.88
2022-12-22T11:24:15.176Z,18.95
2022-12-22T11:26:41.542Z,18.02
2022-12-22T11:29:08.134Z,18.13
2022-12-22T11:31:34.585Z,17.55
2022-12-22T11:34:01.089Z,18.75
2022-12-22T11:36:27.517Z,18.52
2022-12-22T11:38:53.989Z,20.00
2022-12-22T11:41:21.162Z,16.63
2022-12-22T11:43:47.901Z,19.90
2022-12-22T11:46:14.331Z,17.88
2022-12-22T11:48:40.765Z,17.90
2022-12-22T11:51:08.431Z,18.42
2022-12-22T11:53:36.194Z,16.90
2022-12-22T11:56:02.668Z,19.50
2022-12-22T11:58:29.469Z,19.70
2022-12-22T12:01:14.915Z,17.80
2022-12-22T12:03:42.540Z,18.40
2022-12-22T12:06:09.016Z,15.93
2022-12-22T12:08:37.978Z,18.98
2022-12-22T12:11:04.790Z,17.77
2022-12-22T12:13:36.769Z,18.77
2022-12-22T12:16:03.483Z,17.77
2022-12-22T12:18:30.205Z,19.33
2022-12-22T12:20:56.791Z,18.35
2022-12-22T12:23:23.363Z,16.17
2022-12-22T12:25:49.665Z,17.13
2022-12-22T12:28:16.275Z,17.25
2022-12-22T12:30:42.572Z,15.40
2022-12-22T12:33:09.816Z,16.38
2022-12-22T12:35:36.412Z,15.90
2022-12-22T12:38:03.259Z,14.80
2022-12-22T12:40:30.000Z,16.70
2022-12-22T12:42:57.474Z,15.10
2022-12-22T12:45:23.794Z,18.88
2022-12-22T12:47:50.478Z,17.45
2022-12-22T12:50:17.117Z,15.32
2022-12-22T12:52:43.743Z,15.23
2022-12-22T12:55:12.153Z,16.23
2022-12-22T12:57:42.230Z,17.00
2022-12-22T13:00:08.727Z,15.40
2022-12-22T13:02:38.074Z,16.77
2022-12-22T13:05:07.737Z,16.40
2022-12-22T13:07:34.573Z,13.77
2022-12-22T13:10:01.273Z,14.05
2022-12-22T13:12:28.133Z,14.68
2022-12-22T13:14:54.705Z,14.32
2022-12-22T13:17:21.477Z,13.32
2022-12-22T13:19:48.914Z,14.38
2022-12-22T13:22:15.724Z,15.15
2022-12-22T13:24:49.157Z,13.45
2022-12-22T13:27:15.794Z,14.90
2022-12-22T13:29:42.351Z,14.85
2022-12-22T13:32:09.577Z,16.33
2022-12-22T13:34:51.022Z,15.93
2022-12-22T13:37:23.092Z,14.75
2022-12-22T13:39:49.640Z,14.05
2022-12-22T13:42:16.168Z,14.82
2022-12-22T13:44:43.100Z,15.38
2022-12-22T13:47:10.291Z,17.42
2022-12-22T13:50:07.008Z,15.30
2022-12-22T13:52:24.205Z,15.20
2022-12-22T13:54:50.878Z,14.43
2022-12-22T13:57:17.758Z,13.63
2022-12-22T13:59:44.182Z,14.85
2022-12-22T14:02:10.858Z,16.60
2022-12-22T14:04:37.684Z,14.75
2022-12-22T14:07:04.674Z,12.88
2022-12-22T14:09:31.490Z,13.05
2022-12-22T14:11:58.151Z,12.05
2022-12-22T14:14:24.982Z,13.82
2022-12-22T14:16:51.645Z,11.82
2022-12-22T14:19:18.112Z,13.38
2022-12-22T14:21:45.026Z,13.30
2022-12-22T14:24:11.700Z,13.95
2022-12-22T14:26:38.216Z,13.13
2022-12-22T14:29:04.815Z,13.35
2022-12-22T14:31:31.141Z,12.13
2022-12-22T14:33:57.536Z,12.57
2022-12-22T14:36:24.365Z,16.17
2022-12-22T14:38:51.149Z,12.95
2022-12-22T14:41:17.579Z,13.75
2022-12-22T14:43:44.175Z,12.60
2022-12-22T14:46:11.120Z,14.57
2022-12-22T14:48:37.567Z,10.95
2022-12-22T14:51:04.278Z,13.20
2022-12-22T14:53:30.766Z,12.50
2022-12-22T14:55:57.113Z,11.32
2022-12-22T14:58:23.459Z,11.85
2022-12-22T15:00:50.047Z,12.43
2022-12-22T15:03:17.240Z,11.75
2022-12-22T15:05:43.783Z,12.35
2022-12-22T15:08:10.625Z,11.35
2022-12-22T15:10:37.082Z,11.70
2022-12-22T15:13:03.750Z,13.18
2022-12-22T15:15:30.591Z,12.55
2022-12-22T15:17:56.998Z,11.38
2022-12-22T15:20:24.071Z,12.05
2022-12-22T15:22:50.516Z,13.23
2022-12-22T15:25:17.344Z,11.50
2022-12-22T15:27:43.764Z,11.80
2022-12-22T15:30:10.130Z,10.70
2022-12-22T15:32:38.184Z,11.55
2022-12-22T15:35:04.688Z,10.80
2022-12-22T15:37:31.473Z,11.25
2022-12-22T15:39:58.379Z,11.60
2022-12-22T15:42:24.982Z,11.35
2022-12-22T15:44:51.701Z,10.57
2022-12-22T15:47:18.088Z,10.25
2022-12-22T15:49:45.163Z,10.55
2022-12-22T15:52:11.953Z,11.02
2022-12-22T15:54:38.321Z,10.70
2022-12-22T15:57:05.158Z,11.27
2022-12-22T15:59:32.035Z,13.18
2022-12-22T16:02:01.896Z,11.07
2022-12-22T16:06:55.634Z,9.95
2022-12-22T16:09:22.016Z,11.40
2022-12-22T16:11:48.399Z,11.80
2022-12-22T16:14:14.794Z,11.50
2022-12-22T16:16:41.434Z,9.75
2022-12-22T16:19:07.824Z,9.13
2022-12-22T16:21:34.293Z,9.38
2022-12-22T16:24:00.609Z,11.82
2022-12-22T16:26:27.418Z,9.73
2022-12-22T16:28:53.792Z,10.88
2022-12-22T16:31:20.216Z,11.00
2022-12-22T16:33:47.115Z,11.13
2022-12-22T16:36:13.879Z,10.00
2022-12-22T16:38:40.264Z,10.10
2022-12-22T16:41:06.679Z,10.85
2022-12-22T16:43:51.606Z,10.77
2022-12-22T16:46:20.676Z,8.82
2022-12-22T16:48:47.473Z,9.27
2022-12-22T16:51:14.118Z,9.57
2022-12-22T16:53:41.059Z,9.93
2022-12-22T16:56:07.585Z,10.27
2022-12-22T16:58:34.002Z,9.52
2022-12-22T17:01:00.813Z,9.95
2022-12-22T17:03:27.239Z,8.80
2022-12-22T17:05:53.822Z,10.98
2022-12-22T17:08:20.441Z,9.30
2022-12-22T17:10:47.335Z,10.70
2022-12-22T17:13:14.005Z,9.20
2022-12-22T17:15:40.440Z,9.60
2022-12-22T17:18:06.821Z,7.72
2022-12-22T17:20:33.185Z,8.90
2022-12-22T17:22:59.594Z,7.75
2022-12-22T17:25:29.010Z,9.90
2022-12-22T17:27:55.958Z,9.45
2022-12-22T17:30:22.741Z,9.05
2022-12-22T17:32:49.069Z,8.77
2022-12-22T17:35:15.968Z,9.23
2022-12-22T17:37:42.313Z,8.18
2022-12-22T17:40:10.884Z,9.50
2022-12-22T17:42:37.875Z,9.35
2022-12-22T17:45:04.759Z,9.75
2022-12-22T17:47:34.915Z,9.43
2022-12-22T17:50:07.619Z,8.38
2022-12-22T17:52:33.974Z,8.13
2022-12-22T17:55:00.418Z,7.60
2022-12-22T17:57:27.490Z,10.15
2022-12-22T17:59:53.887Z,7.70
2022-12-22T18:02:21.140Z,8.90
2022-12-22T18:04:47.963Z,7.90
2022-12-22T18:07:14.280Z,8.18
2022-12-22T18:09:40.694Z,8.63
2022-12-22T18:12:07.440Z,8.07
2022-12-22T18:14:34.211Z,8.43
2022-12-22T18:17:00.654Z,10.18
2022-12-22T18:19:27.110Z,9.25
2022-12-22T18:21:53.625Z,7.65
2022-12-22T18:24:20.117Z,8.07
2022-12-22T18:26:46.575Z,8.52
2022-12-22T18:29:13.781Z,9.15
2022-12-22T18:31:40.359Z,7.50
2022-12-22T18:34:06.871Z,7.35
2022-12-22T18:36:33.923Z,8.90
2022-12-22T18:39:00.351Z,8.55
2022-12-22T18:41:28.733Z,8.40
2022-12-22T18:43:55.413Z,7.28
2022-12-22T18:46:22.200Z,9.27
2022-12-22T18:48:48.619Z,7.50
2022-12-22T18:51:15.039Z,7.50
2022-12-22T18:53:43.507Z,104.15
2022-12-22T18:56:09.930Z,88.40
2022-12-22T18:58:37.204Z,133.00
2022-12-22T19:01:04.260Z,118.93
2022-12-22T19:03:31.604Z,185.75
2022-12-22T19:05:58.454Z,385.10
2022-12-22T19:08:25.700Z,314.98
2022-12-22T19:10:52.111Z,293.00
2022-12-22T19:13:18.718Z,280.83
2022-12-22T19:15:45.136Z,252.68
2022-12-22T19:18:11.454Z,236.60
2022-12-22T19:20:38.304Z,213.00
2022-12-22T19:23:04.704Z,240.10
2022-12-22T19:25:31.098Z,266.33
2022-12-22T19:27:57.803Z,281.63
2022-12-22T19:30:24.645Z,277.70
2022-12-22T19:32:51.422Z,258.52
2022-12-22T19:35:18.347Z,236.65
2022-12-22T19:37:45.633Z,211.52
2022-12-22T19:40:12.605Z,208.68
2022-12-22T19:42:39.053Z,191.68
2022-12-22T19:45:11.525Z,183.27
2022-12-22T19:47:40.776Z,178.65
2022-12-22T19:50:07.337Z,165.65
2022-12-22T19:52:33.771Z,154.32
2022-12-22T19:55:00.817Z,146.85
2022-12-22T19:57:29.003Z,142.50
2022-12-22T19:59:55.669Z,136.77
2022-12-22T20:02:22.403Z,198.13
2022-12-22T20:04:48.822Z,236.02
2022-12-22T20:07:15.187Z,233.82
2022-12-22T20:09:41.497Z,207.55
2022-12-22T20:12:13.013Z,204.02
2022-12-22T20:14:39.420Z,184.23
2022-12-22T20:17:08.528Z,177.93
2022-12-22T20:19:35.364Z,171.98
2022-12-22T20:22:01.898Z,166.02
2022-12-22T20:27:14.013Z,301.35
2022-12-22T20:32:28.333Z,322.38
2022-12-22T20:34:54.919Z,306.25
2022-12-22T20:37:22.591Z,284.70
2022-12-22T20:39:49.400Z,273.33
2022-12-22T20:42:16.033Z,258.15
2022-12-22T20:45:03.114Z,244.70
2022-12-22T20:47:29.413Z,351.70
2022-12-22T20:49:56.261Z,377.42
2022-12-22T20:52:22.807Z,355.52
2022-12-22T20:54:49.119Z,330.13
2022-12-22T20:57:15.617Z,313.30
2022-12-22T20:59:42.445Z,305.08
2022-12-22T21:02:09.594Z,285.90
2022-12-22T21:04:36.141Z,273.38
2022-12-22T21:07:02.724Z,249.52
2022-12-22T21:09:29.126Z,248.88
2022-12-22T21:11:56.325Z,239.85
2022-12-22T21:14:23.156Z,234.45
2022-12-22T21:16:50.899Z,320.58
2022-12-22T21:19:19.016Z,317.73
2022-12-22T21:21:45.781Z,306.83
2022-12-22T21:24:12.655Z,294.48
2022-12-22T21:26:39.678Z,282.00
2022-12-22T21:29:06.624Z,261.83
2022-12-22T21:31:33.439Z,250.55
2022-12-22T21:34:00.390Z,240.27
2022-12-22T21:36:27.140Z,227.70
2022-12-22T21:38:53.777Z,212.52
2022-12-22T21:41:20.612Z,199.38
2022-12-22T21:43:47.774Z,197.55
2022-12-22T21:46:14.451Z,180.93
2022-12-22T21:48:40.831Z,289.20
2022-12-22T21:51:07.533Z,337.02
2022-12-22T21:53:34.787Z,306.70
2022-12-22T21:56:01.929Z,292.05
2022-12-22T21:58:28.785Z,275.10
2022-12-22T22:00:55.235Z,263.70
2022-12-22T22:03:21.702Z,250.27
2022-12-22T22:05:48.451Z,352.55
2022-12-22T22:08:16.877Z,400.60
2022-12-22T22:10:43.378Z,366.40
2022-12-22T22:13:10.797Z,349.52
2022-12-22T22:15:37.462Z,333.55
2022-12-22T22:18:07.201Z,312.33
2022-12-22T22:20:33.964Z,310.70
2022-12-22T22:23:00.891Z,288.00
2022-12-22T22:25:27.296Z,272.58
2022-12-22T22:27:53.797Z,263.48
2022-12-22T22:30:20.400Z,264.17
2022-12-22T22:32:47.580Z,391.33
2022-12-22T22:35:14.651Z,397.88
2022-12-22T22:37:41.568Z,368.30
2022-12-22T22:40:08.714Z,359.65
2022-12-22T22:42:35.351Z,330.02
2022-12-22T22:45:02.242Z,385.75
2022-12-22T22:47:29.307Z,401.85
2022-12-22T22:49:56.329Z,454.23
2022-12-22T22:52:22.868Z,443.48
2022-12-22T22:54:50.014Z,433.35
2022-12-22T22:57:17.000Z,428.17
2022-12-22T22:59:44.318Z,419.33
2022-12-22T23:02:11.234Z,416.05
2022-12-22T23:04:37.825Z,411.70
2022-12-22T23:09:54.719Z,405.85
2022-12-22T23:12:21.053Z,403.38
2022-12-22T23:14:47.617Z,393.23
2022-12-22T23:17:14.198Z,384.05
2022-12-22T23:19:40.530Z,382.73
2022-12-22T23:22:07.183Z,379.45
2022-12-22T23:24:33.900Z,374.25
2022-12-22T23:27:00.366Z,372.40
2022-12-22T23:29:27.488Z,368.10
2022-12-22T23:31:53.973Z,367.02
2022-12-22T23:34:20.447Z,355.13
2022-12-22T23:36:47.294Z,359.27
2022-12-22T23:39:13.819Z,357.45
2022-12-22T23:41:40.202Z,350.52
2022-12-22T23:44:07.161Z,345.40
2022-12-22T23:46:33.612Z,341.65
2022-12-22T23:49:00.244Z,331.63
2022-12-22T23:51:27.133Z,334.30
2022-12-22T23:53:53.423Z,329.58
2022-12-22T23:56:19.902Z,329.20
2022-12-22T23:58:51.013Z,322.15
